sensor_id;sensor_type;location;lat;lon;timestamp;pressure;altitude;pressure_sealevel;temperature;humidity
20630;BME280;17386;43.846;25.950;2023-12-20T00:01:16;101623.59;;;4.53;100.00
20630;BME280;17386;43.846;25.950;2023-12-20T00:03:41;101617.44;;;4.51;100.00
20630;BME280;17386;43.846;25.950;2023-12-20T00:06:07;101622.69;;;4.51;100.00
20630;BME280;17386;43.846;25.950;2023-12-20T00:08:32;101620.09;;;4.56;100.00
20630;BME280;17386;43.846;25.950;2023-12-20T00:10:58;101620.09;;;4.54;100.00
20630;BME280;17386;43.846;25.950;2023-12-20T00:13:23;101622.72;;;4.54;100.00
20630;BME280;17386;43.846;25.950;2023-12-20T00:15:48;101610.41;;;4.50;100.00
20630;BME280;17386;43.846;25.950;2023-12-20T00:18:14;101610.38;;;4.44;100.00
20630;BME280;17386;43.846;25.950;2023-12-20T00:20:39;101615.66;;;4.41;100.00
20630;BME280;17386;43.846;25.950;2023-12-20T00:23:05;101611.28;;;4.42;100.00
20630;BME280;17386;43.846;25.950;2023-12-20T00:25:30;101606.88;;;4.45;100.00
20630;BME280;17386;43.846;25.950;2023-12-20T00:27:55;101611.25;;;4.45;100.00
20630;BME280;17386;43.846;25.950;2023-12-20T00:30:21;101607.75;;;4.44;100.00
20630;BME280;17386;43.846;25.950;2023-12-20T00:32:46;101599.00;;;4.42;100.00
20630;BME280;17386;43.846;25.950;2023-12-20T00:35:16;101603.38;;;4.42;100.00
20630;BME280;17386;43.846;25.950;2023-12-20T00:37:42;101593.69;;;4.39;100.00
20630;BME280;17386;43.846;25.950;2023-12-20T00:40:08;101590.22;;;4.40;100.00
20630;BME280;17386;43.846;25.950;2023-12-20T00:42:33;101589.34;;;4.39;100.00
20630;BME280;17386;43.846;25.950;2023-12-20T00:44:59;101589.34;;;4.39;100.00
20630;BME280;17386;43.846;25.950;2023-12-20T00:47:25;101578.81;;;4.33;100.00
20630;BME280;17386;43.846;25.950;2023-12-20T00:49:51;101583.16;;;4.39;100.00
20630;BME280;17386;43.846;25.950;2023-12-20T00:52:17;101578.78;;;4.36;100.00
20630;BME280;17386;43.846;25.950;2023-12-20T00:54:43;101573.53;;;4.36;100.00
20630;BME280;17386;43.846;25.950;2023-12-20T00:57:08;101577.91;;;4.39;100.00
20630;BME280;17386;43.846;25.950;2023-12-20T00:59:34;101566.53;;;4.35;100.00
20630;BME280;17386;43.846;25.950;2023-12-20T01:01:59;101565.63;;;4.38;100.00
20630;BME280;17386;43.846;25.950;2023-12-20T01:04:25;101564.75;;;4.39;100.00
20630;BME280;17386;43.846;25.950;2023-12-20T01:06:51;101554.25;;;4.39;100.00
20630;BME280;17386;43.846;25.950;2023-12-20T01:09:16;101550.75;;;4.40;100.00
20630;BME280;17386;43.846;25.950;2023-12-20T01:11:42;101549.00;;;4.42;100.00
20630;BME280;17386;43.846;25.950;2023-12-20T01:14:08;101544.63;;;4.41;100.00
20630;BME280;17386;43.846;25.950;2023-12-20T01:16:33;101536.72;;;4.43;100.00
20630;BME280;17386;43.846;25.950;2023-12-20T01:18:58;101541.13;;;4.48;100.00
20630;BME280;17386;43.846;25.950;2023-12-20T01:21:24;101541.13;;;4.51;100.00
20630;BME280;17386;43.846;25.950;2023-12-20T01:23:49;101525.34;;;4.48;100.00
20630;BME280;17386;43.846;25.950;2023-12-20T01:26:15;101521.84;;;4.46;100.00
20630;BME280;17386;43.846;25.950;2023-12-20T01:28:40;101526.19;;;4.46;100.00
20630;BME280;17386;43.846;25.950;2023-12-20T01:31:05;101520.94;;;4.50;100.00
20630;BME280;17386;43.846;25.950;2023-12-20T01:33:31;101507.78;;;4.50;100.00
20630;BME280;17386;43.846;25.950;2023-12-20T01:35:56;101501.66;;;4.47;100.00
20630;BME280;17386;43.846;25.950;2023-12-20T01:38:22;101500.78;;;4.49;100.00
20630;BME280;17386;43.846;25.950;2023-12-20T01:40:47;101496.38;;;4.50;100.00
20630;BME280;17386;43.846;25.950;2023-12-20T01:43:13;101489.34;;;4.46;100.00
20630;BME280;17386;43.846;25.950;2023-12-20T01:45:38;101475.31;;;4.44;100.00
20630;BME280;17386;43.846;25.950;2023-12-20T01:48:05;101474.47;;;4.43;100.00
20630;BME280;17386;43.846;25.950;2023-12-20T01:50:31;101471.84;;;4.42;100.00
20630;BME280;17386;43.846;25.950;2023-12-20T01:53:00;101465.69;;;4.41;100.00
20630;BME280;17386;43.846;25.950;2023-12-20T01:55:32;101463.91;;;4.38;100.00
20630;BME280;17386;43.846;25.950;2023-12-20T01:57:59;101458.69;;;4.40;100.00
20630;BME280;17386;43.846;25.950;2023-12-20T02:00:29;101466.56;;;4.35;100.00
20630;BME280;17386;43.846;25.950;2023-12-20T02:02:55;101457.78;;;4.33;100.00
20630;BME280;17386;43.846;25.950;2023-12-20T02:05:22;101447.25;;;4.30;100.00
20630;BME280;17386;43.846;25.950;2023-12-20T02:07:47;101456.91;;;4.36;100.00
20630;BME280;17386;43.846;25.950;2023-12-20T02:10:13;101450.78;;;4.34;100.00
20630;BME280;17386;43.846;25.950;2023-12-20T02:12:39;101433.22;;;4.27;100.00
20630;BME280;17386;43.846;25.950;2023-12-20T02:15:04;101447.25;;;4.32;100.00
20630;BME280;17386;43.846;25.950;2023-12-20T02:17:31;101437.59;;;4.29;100.00
20630;BME280;17386;43.846;25.950;2023-12-20T02:19:57;101445.50;;;4.28;100.00
20630;BME280;17386;43.846;25.950;2023-12-20T02:22:22;101446.38;;;4.22;100.00
20630;BME280;17386;43.846;25.950;2023-12-20T02:24:48;101436.72;;;4.14;100.00
20630;BME280;17386;43.846;25.950;2023-12-20T02:27:15;101435.84;;;4.15;100.00
20630;BME280;17386;43.846;25.950;2023-12-20T02:29:41;101434.97;;;4.17;100.00
20630;BME280;17386;43.846;25.950;2023-12-20T02:32:06;101426.19;;;4.06;100.00
20630;BME280;17386;43.846;25.950;2023-12-20T02:34:32;101423.53;;;4.04;100.00
20630;BME280;17386;43.846;25.950;2023-12-20T02:36:57;101419.16;;;4.03;100.00
20630;BME280;17386;43.846;25.950;2023-12-20T02:39:23;101419.19;;;4.05;100.00
20630;BME280;17386;43.846;25.950;2023-12-20T02:41:48;101414.78;;;4.02;100.00
20630;BME280;17386;43.846;25.950;2023-12-20T02:44:14;101415.66;;;4.03;100.00
20630;BME280;17386;43.846;25.950;2023-12-20T02:46:39;101413.91;;;4.05;100.00
20630;BME280;17386;43.846;25.950;2023-12-20T02:49:06;101416.53;;;4.06;100.00
20630;BME280;17386;43.846;25.950;2023-12-20T02:51:31;101407.78;;;4.06;100.00
20630;BME280;17386;43.846;25.950;2023-12-20T02:53:57;101407.78;;;4.00;100.00
20630;BME280;17386;43.846;25.950;2023-12-20T02:56:22;101406.91;;;4.01;100.00
20630;BME280;17386;43.846;25.950;2023-12-20T02:58:48;101403.38;;;4.02;100.00
20630;BME280;17386;43.846;25.950;2023-12-20T03:01:13;101392.00;;;4.00;100.00
20630;BME280;17386;43.846;25.950;2023-12-20T03:03:39;101409.53;;;4.01;100.00
20630;BME280;17386;43.846;25.950;2023-12-20T03:06:04;101402.50;;;4.00;100.00
20630;BME280;17386;43.846;25.950;2023-12-20T03:08:30;101395.50;;;4.02;100.00
20630;BME280;17386;43.846;25.950;2023-12-20T03:10:55;101403.41;;;3.99;100.00
20630;BME280;17386;43.846;25.950;2023-12-20T03:13:21;101397.25;;;3.94;100.00
20630;BME280;17386;43.846;25.950;2023-12-20T03:15:46;101401.63;;;3.92;100.00
20630;BME280;17386;43.846;25.950;2023-12-20T03:18:12;101402.50;;;3.92;100.00
20630;BME280;17386;43.846;25.950;2023-12-20T03:20:37;101397.25;;;3.94;100.00
20630;BME280;17386;43.846;25.950;2023-12-20T03:23:03;101394.59;;;3.95;100.00
20630;BME280;17386;43.846;25.950;2023-12-20T03:25:29;101394.59;;;3.95;100.00
20630;BME280;17386;43.846;25.950;2023-12-20T03:27:54;101384.09;;;3.92;100.00
20630;BME280;17386;43.846;25.950;2023-12-20T03:30:20;101391.97;;;3.95;100.00
20630;BME280;17386;43.846;25.950;2023-12-20T03:32:45;101375.34;;;3.93;100.00
20630;BME280;17386;43.846;25.950;2023-12-20T03:35:11;101369.19;;;3.96;100.00
20630;BME280;17386;43.846;25.950;2023-12-20T03:37:36;101365.72;;;3.98;100.00
20630;BME280;17386;43.846;25.950;2023-12-20T03:40:02;101360.44;;;4.01;100.00
20630;BME280;17386;43.846;25.950;2023-12-20T03:42:28;101355.19;;;3.92;100.00
20630;BME280;17386;43.846;25.950;2023-12-20T03:44:53;101349.91;;;3.91;100.00
20630;BME280;17386;43.846;25.950;2023-12-20T03:47:19;101353.41;;;3.90;100.00
20630;BME280;17386;43.846;25.950;2023-12-20T03:49:44;101344.66;;;3.86;100.00
20630;BME280;17386;43.846;25.950;2023-12-20T03:52:10;101342.91;;;3.88;100.00
20630;BME280;17386;43.846;25.950;2023-12-20T03:54:35;101340.25;;;3.90;100.00
20630;BME280;17386;43.846;25.950;2023-12-20T03:57:01;101337.63;;;3.88;100.00
20630;BME280;17386;43.846;25.950;2023-12-20T03:59:26;101330.66;;;3.86;100.00
20630;BME280;17386;43.846;25.950;2023-12-20T04:01:52;101323.63;;;3.81;100.00
20630;BME280;17386;43.846;25.950;2023-12-20T04:04:17;101328.00;;;3.82;100.00
20630;BME280;17386;43.846;25.950;2023-12-20T04:06:43;101329.75;;;3.82;100.00
20630;BME280;17386;43.846;25.950;2023-12-20T04:09:08;101325.38;;;3.79;100.00
20630;BME280;17386;43.846;25.950;2023-12-20T04:11:37;101331.50;;;3.80;100.00
20630;BME280;17386;43.846;25.950;2023-12-20T04:14:03;101327.13;;;3.79;100.00
20630;BME280;17386;43.846;25.950;2023-12-20T04:16:30;101320.13;;;3.78;100.00
20630;BME280;17386;43.846;25.950;2023-12-20T04:18:55;101319.22;;;3.77;100.00
20630;BME280;17386;43.846;25.950;2023-12-20T04:21:21;101320.13;;;3.78;100.00
20630;BME280;17386;43.846;25.950;2023-12-20T04:23:46;101307.84;;;3.80;100.00
20630;BME280;17386;43.846;25.950;2023-12-20T04:26:11;101316.59;;;3.82;100.00
20630;BME280;17386;43.846;25.950;2023-12-20T04:28:37;101306.09;;;3.80;100.00
20630;BME280;17386;43.846;25.950;2023-12-20T04:31:02;101306.09;;;3.80;100.00
20630;BME280;17386;43.846;25.950;2023-12-20T04:33:28;101304.34;;;3.78;100.00
20630;BME280;17386;43.846;25.950;2023-12-20T04:35:53;101310.47;;;3.78;100.00
20630;BME280;17386;43.846;25.950;2023-12-20T04:38:19;101300.84;;;3.79;100.00
20630;BME280;17386;43.846;25.950;2023-12-20T04:40:44;101305.22;;;3.78;100.00
20630;BME280;17386;43.846;25.950;2023-12-20T04:43:10;101304.34;;;3.75;100.00
20630;BME280;17386;43.846;25.950;2023-12-20T04:45:35;101304.34;;;3.73;100.00
20630;BME280;17386;43.846;25.950;2023-12-20T04:48:02;101304.34;;;3.73;100.00
20630;BME280;17386;43.846;25.950;2023-12-20T04:50:27;101303.47;;;3.74;100.00
20630;BME280;17386;43.846;25.950;2023-12-20T04:52:53;101303.47;;;3.74;100.00
20630;BME280;17386;43.846;25.950;2023-12-20T04:55:18;101301.69;;;3.70;100.00
20630;BME280;17386;43.846;25.950;2023-12-20T04:57:44;101298.22;;;3.71;100.00
20630;BME280;17386;43.846;25.950;2023-12-20T05:00:09;101293.81;;;3.66;100.00
20630;BME280;17386;43.846;25.950;2023-12-20T05:02:36;101288.53;;;3.63;100.00
20630;BME280;17386;43.846;25.950;2023-12-20T05:05:01;101284.19;;;3.57;100.00
20630;BME280;17386;43.846;25.950;2023-12-20T05:07:27;101279.78;;;3.54;100.00
20630;BME280;17386;43.846;25.950;2023-12-20T05:09:52;101281.56;;;3.57;100.00
20630;BME280;17386;43.846;25.950;2023-12-20T05:12:18;101288.53;;;3.53;100.00
20630;BME280;17386;43.846;25.950;2023-12-20T05:14:44;101296.44;;;3.52;100.00
20630;BME280;17386;43.846;25.950;2023-12-20T05:17:09;101292.91;;;3.51;100.00
20630;BME280;17386;43.846;25.950;2023-12-20T05:19:34;101298.19;;;3.53;100.00
20630;BME280;17386;43.846;25.950;2023-12-20T05:22:01;101305.19;;;3.54;100.00
20630;BME280;17386;43.846;25.950;2023-12-20T05:24:27;101294.66;;;3.55;100.00
20630;BME280;17386;43.846;25.950;2023-12-20T05:26:52;101278.88;;;3.48;100.00
20630;BME280;17386;43.846;25.950;2023-12-20T05:29:18;101277.13;;;3.47;100.00
20630;BME280;17386;43.846;25.950;2023-12-20T05:31:43;101276.28;;;3.45;100.00
20630;BME280;17386;43.846;25.950;2023-12-20T05:34:08;101272.78;;;3.46;100.00
20630;BME280;17386;43.846;25.950;2023-12-20T05:36:34;101277.13;;;3.50;100.00
20630;BME280;17386;43.846;25.950;2023-12-20T05:39:00;101270.13;;;3.38;100.00
20630;BME280;17386;43.846;25.950;2023-12-20T05:41:25;101276.25;;;3.29;100.00
20630;BME280;17386;43.846;25.950;2023-12-20T05:43:51;101272.72;;;3.23;100.00
20630;BME280;17386;43.846;25.950;2023-12-20T05:46:16;101268.31;;;3.20;100.00
20630;BME280;17386;43.846;25.950;2023-12-20T05:48:42;101277.06;;;3.19;100.00
20630;BME280;17386;43.846;25.950;2023-12-20T05:51:07;101269.16;;;3.15;100.00
20630;BME280;17386;43.846;25.950;2023-12-20T05:53:33;101270.03;;;3.15;100.00
20630;BME280;17386;43.846;25.950;2023-12-20T05:55:58;101267.41;;;3.14;100.00
20630;BME280;17386;43.846;25.950;2023-12-20T05:58:24;101257.78;;;3.04;100.00
20630;BME280;17386;43.846;25.950;2023-12-20T06:00:50;101277.94;;;3.18;100.00
20630;BME280;17386;43.846;25.950;2023-12-20T06:03:15;101279.72;;;3.27;100.00
20630;BME280;17386;43.846;25.950;2023-12-20T06:05:41;101283.25;;;3.31;100.00
20630;BME280;17386;43.846;25.950;2023-12-20T06:08:06;101275.38;;;3.38;100.00
20630;BME280;17386;43.846;25.950;2023-12-20T06:10:32;101270.13;;;3.41;100.00
20630;BME280;17386;43.846;25.950;2023-12-20T06:12:57;101271.03;;;3.45;100.00
20630;BME280;17386;43.846;25.950;2023-12-20T06:15:24;101268.38;;;3.46;100.00
20630;BME280;17386;43.846;25.950;2023-12-20T06:17:49;101273.66;;;3.51;100.00
20630;BME280;17386;43.846;25.950;2023-12-20T06:20:15;101270.16;;;3.55;100.00
20630;BME280;17386;43.846;25.950;2023-12-20T06:22:40;101255.25;;;3.48;100.00
20630;BME280;17386;43.846;25.950;2023-12-20T06:25:06;101264.91;;;3.60;100.00
20630;BME280;17386;43.846;25.950;2023-12-20T06:27:32;101239.50;;;3.37;100.00
20630;BME280;17386;43.846;25.950;2023-12-20T06:29:58;101282.41;;;3.51;100.00
20630;BME280;17386;43.846;25.950;2023-12-20T06:32:24;101270.13;;;3.47;100.00
20630;BME280;17386;43.846;25.950;2023-12-20T06:34:49;101275.38;;;3.49;100.00
20630;BME280;17386;43.846;25.950;2023-12-20T06:37:15;101272.78;;;3.53;100.00
20630;BME280;17386;43.846;25.950;2023-12-20T06:39:41;101266.66;;;3.53;100.00
20630;BME280;17386;43.846;25.950;2023-12-20T06:42:06;101266.66;;;3.59;100.00
20630;BME280;17386;43.846;25.950;2023-12-20T06:44:31;101252.63;;;3.52;100.00
20630;BME280;17386;43.846;25.950;2023-12-20T06:46:57;101259.66;;;3.67;100.00
20630;BME280;17386;43.846;25.950;2023-12-20T06:49:23;101264.91;;;3.73;100.00
20630;BME280;17386;43.846;25.950;2023-12-20T06:51:48;101257.91;;;3.80;100.00
20630;BME280;17386;43.846;25.950;2023-12-20T06:54:14;101254.41;;;3.89;100.00
20630;BME280;17386;43.846;25.950;2023-12-20T06:56:39;101257.91;;;3.97;100.00
20630;BME280;17386;43.846;25.950;2023-12-20T06:59:06;101250.88;;;4.03;100.00
20630;BME280;17386;43.846;25.950;2023-12-20T07:01:31;101241.25;;;4.16;100.00
20630;BME280;17386;43.846;25.950;2023-12-20T07:03:57;101243.84;;;4.24;100.00
20630;BME280;17386;43.846;25.950;2023-12-20T07:06:22;101246.44;;;4.39;100.00
20630;BME280;17386;43.846;25.950;2023-12-20T07:08:48;101242.03;;;4.58;100.00
20630;BME280;17386;43.846;25.950;2023-12-20T07:11:13;101241.13;;;4.63;100.00
20630;BME280;17386;43.846;25.950;2023-12-20T07:13:39;101236.69;;;4.76;100.00
20630;BME280;17386;43.846;25.950;2023-12-20T07:16:05;101220.03;;;4.77;100.00
20630;BME280;17386;43.846;25.950;2023-12-20T07:18:31;101238.41;;;4.89;100.00
20630;BME280;17386;43.846;25.950;2023-12-20T07:20:56;101235.75;;;4.96;100.00
20630;BME280;17386;43.846;25.950;2023-12-20T07:23:22;101238.31;;;5.05;100.00
20630;BME280;17386;43.846;25.950;2023-12-20T07:25:47;101235.69;;;5.09;100.00
20630;BME280;17386;43.846;25.950;2023-12-20T07:28:12;101225.13;;;5.15;100.00
20630;BME280;17386;43.846;25.950;2023-12-20T07:30:38;101235.56;;;5.28;100.00
20630;BME280;17386;43.846;25.950;2023-12-20T07:33:04;101224.06;;;5.41;100.00
20630;BME280;17386;43.846;25.950;2023-12-20T07:35:30;101219.59;;;5.52;100.00
20630;BME280;17386;43.846;25.950;2023-12-20T07:37:55;101223.81;;;5.74;100.00
20630;BME280;17386;43.846;25.950;2023-12-20T07:40:21;101226.34;;;5.87;100.00
20630;BME280;17386;43.846;25.950;2023-12-20T07:42:46;101221.91;;;5.98;100.00
20630;BME280;17386;43.846;25.950;2023-12-20T07:45:12;101217.38;;;6.09;100.00
20630;BME280;17386;43.846;25.950;2023-12-20T07:47:37;101214.66;;;6.17;100.00
20630;BME280;17386;43.846;25.950;2023-12-20T07:50:03;101209.28;;;6.24;100.00
20630;BME280;17386;43.846;25.950;2023-12-20T07:52:31;101210.13;;;6.33;100.00
20630;BME280;17386;43.846;25.950;2023-12-20T07:54:57;101214.41;;;6.41;100.00
20630;BME280;17386;43.846;25.950;2023-12-20T07:57:23;101209.84;;;6.55;100.00
20630;BME280;17386;43.846;25.950;2023-12-20T07:59:49;101211.53;;;6.63;99.62
20630;BME280;17386;43.846;25.950;2023-12-20T08:02:14;101217.56;;;6.74;98.81
20630;BME280;17386;43.846;25.950;2023-12-20T08:04:40;101223.56;;;6.85;98.63
20630;BME280;17386;43.846;25.950;2023-12-20T08:07:06;101225.31;;;6.86;98.33
20630;BME280;17386;43.846;25.950;2023-12-20T08:09:32;101226.09;;;6.96;97.99
20630;BME280;17386;43.846;25.950;2023-12-20T08:11:59;101237.53;;;6.95;97.80
20630;BME280;17386;43.846;25.950;2023-12-20T08:14:25;101224.47;;;6.84;98.60
20630;BME280;17386;43.846;25.950;2023-12-20T08:16:50;101222.66;;;6.88;99.11
20630;BME280;17386;43.846;25.950;2023-12-20T08:19:16;101224.44;;;6.85;99.43
20630;BME280;17386;43.846;25.950;2023-12-20T08:21:42;101206.06;;;6.76;99.83
20630;BME280;17386;43.846;25.950;2023-12-20T08:24:08;101216.63;;;6.79;99.85
20630;BME280;17386;43.846;25.950;2023-12-20T08:26:33;101209.53;;;6.81;100.00
20630;BME280;17386;43.846;25.950;2023-12-20T08:28:59;101200.84;;;6.72;100.00
20630;BME280;17386;43.846;25.950;2023-12-20T08:31:24;101188.31;;;6.89;100.00
20630;BME280;17386;43.846;25.950;2023-12-20T08:33:51;101184.91;;;6.81;100.00
20630;BME280;17386;43.846;25.950;2023-12-20T08:36:18;101175.50;;;6.57;100.00
20630;BME280;17386;43.846;25.950;2023-12-20T08:38:44;101168.34;;;6.68;100.00
20630;BME280;17386;43.846;25.950;2023-12-20T08:41:09;101159.47;;;6.74;100.00
20630;BME280;17386;43.846;25.950;2023-12-20T08:43:35;101156.78;;;6.77;100.00
20630;BME280;17386;43.846;25.950;2023-12-20T08:46:01;101152.25;;;6.87;100.00
20630;BME280;17386;43.846;25.950;2023-12-20T08:48:26;101142.56;;;6.87;100.00
20630;BME280;17386;43.846;25.950;2023-12-20T08:50:52;101145.00;;;7.01;100.00
20630;BME280;17386;43.846;25.950;2023-12-20T08:53:18;101138.63;;;7.16;100.00
20630;BME280;17386;43.846;25.950;2023-12-20T08:55:44;101140.19;;;7.27;100.00
20630;BME280;17386;43.846;25.950;2023-12-20T08:58:09;101138.31;;;7.34;100.00
20630;BME280;17386;43.846;25.950;2023-12-20T09:00:35;101136.44;;;7.40;100.00
20630;BME280;17386;43.846;25.950;2023-12-20T09:03:04;101124.88;;;7.48;100.00
20630;BME280;17386;43.846;25.950;2023-12-20T09:05:29;101119.47;;;7.55;100.00
20630;BME280;17386;43.846;25.950;2023-12-20T09:07:55;101119.66;;;7.45;100.00
20630;BME280;17386;43.846;25.950;2023-12-20T09:10:21;101116.94;;;7.48;100.00
20630;BME280;17386;43.846;25.950;2023-12-20T09:12:50;101110.78;;;7.47;100.00
20630;BME280;17386;43.846;25.950;2023-12-20T09:15:15;101087.16;;;7.38;100.00
20630;BME280;17386;43.846;25.950;2023-12-20T09:17:41;101098.63;;;7.37;100.00
20630;BME280;17386;43.846;25.950;2023-12-20T09:20:07;101096.69;;;7.48;100.00
20630;BME280;17386;43.846;25.950;2023-12-20T09:22:34;101083.38;;;7.53;100.00
20630;BME280;17386;43.846;25.950;2023-12-20T09:24:59;101078.84;;;7.59;100.00
20630;BME280;17386;43.846;25.950;2023-12-20T09:27:27;101087.50;;;7.69;100.00
20630;BME280;17386;43.846;25.950;2023-12-20T09:29:52;101080.31;;;7.77;100.00
20630;BME280;17386;43.846;25.950;2023-12-20T09:32:18;101076.69;;;7.81;99.95
20630;BME280;17386;43.846;25.950;2023-12-20T09:34:45;101072.97;;;7.91;100.00
20630;BME280;17386;43.846;25.950;2023-12-20T09:37:11;101060.25;;;8.10;99.34
20630;BME280;17386;43.846;25.950;2023-12-20T09:39:36;101055.38;;;8.32;99.05
20630;BME280;17386;43.846;25.950;2023-12-20T09:42:06;101041.75;;;8.50;97.98
20630;BME280;17386;43.846;25.950;2023-12-20T09:44:32;101025.56;;;8.64;97.39
20630;BME280;17386;43.846;25.950;2023-12-20T09:47:02;101023.25;;;8.88;96.69
20630;BME280;17386;43.846;25.950;2023-12-20T09:49:28;101018.22;;;9.13;95.18
20630;BME280;17386;43.846;25.950;2023-12-20T09:51:54;101007.84;;;9.38;94.27
20630;BME280;17386;43.846;25.950;2023-12-20T09:54:21;101001.50;;;9.43;92.90
20630;BME280;17386;43.846;25.950;2023-12-20T09:56:47;100990.91;;;9.43;92.44
20630;BME280;17386;43.846;25.950;2023-12-20T09:59:13;100995.78;;;9.58;92.27
20630;BME280;17386;43.846;25.950;2023-12-20T10:01:40;101000.25;;;9.87;90.26
20630;BME280;17386;43.846;25.950;2023-12-20T10:04:07;101002.78;;;9.92;88.76
20630;BME280;17386;43.846;25.950;2023-12-20T10:06:44;100995.44;;;9.71;89.13
20630;BME280;17386;43.846;25.950;2023-12-20T10:09:11;100989.44;;;9.64;90.25
20630;BME280;17386;43.846;25.950;2023-12-20T10:11:37;100984.03;;;9.69;90.40
20630;BME280;17386;43.846;25.950;2023-12-20T10:14:04;100973.66;;;9.59;90.28
20630;BME280;17386;43.846;25.950;2023-12-20T10:16:30;100969.22;;;9.91;91.41
20630;BME280;17386;43.846;25.950;2023-12-20T10:18:56;100956.28;;;10.39;88.53
20630;BME280;17386;43.846;25.950;2023-12-20T10:21:25;100952.94;;;10.61;86.55
20630;BME280;17386;43.846;25.950;2023-12-20T10:23:55;100949.75;;;10.78;86.10
20630;BME280;17386;43.846;25.950;2023-12-20T10:26:21;100950.09;;;11.18;85.51
20630;BME280;17386;43.846;25.950;2023-12-20T10:28:51;100942.72;;;11.51;82.43
20630;BME280;17386;43.846;25.950;2023-12-20T10:31:30;100940.81;;;11.55;82.10
20630;BME280;17386;43.846;25.950;2023-12-20T10:34:01;100940.56;;;11.86;81.07
20630;BME280;17386;43.846;25.950;2023-12-20T10:36:28;100928.91;;;11.90;79.60
20630;BME280;17386;43.846;25.950;2023-12-20T10:38:55;100923.56;;;11.90;79.50
20630;BME280;17386;43.846;25.950;2023-12-20T10:41:32;100925.94;;;11.98;79.34
20630;BME280;17386;43.846;25.950;2023-12-20T10:44:02;100917.38;;;11.90;78.86
20630;BME280;17386;43.846;25.950;2023-12-20T10:46:30;100915.19;;;12.01;78.77
20630;BME280;17386;43.846;25.950;2023-12-20T10:48:58;100917.91;;;12.65;77.11
20630;BME280;17386;43.846;25.950;2023-12-20T10:51:24;100903.41;;;12.72;74.29
20630;BME280;17386;43.846;25.950;2023-12-20T10:53:52;100905.06;;;12.75;74.88
20630;BME280;17386;43.846;25.950;2023-12-20T10:56:18;100895.69;;;12.44;74.97
20630;BME280;17386;43.846;25.950;2023-12-20T10:58:45;100890.84;;;12.10;76.16
20630;BME280;17386;43.846;25.950;2023-12-20T11:01:13;100889.66;;;11.95;76.99
20630;BME280;17386;43.846;25.950;2023-12-20T11:03:50;100880.69;;;12.20;77.85
20630;BME280;17386;43.846;25.950;2023-12-20T11:12:26;100878.50;;;12.94;73.20
20630;BME280;17386;43.846;25.950;2023-12-20T11:14:54;100875.56;;;13.40;71.93
20630;BME280;17386;43.846;25.950;2023-12-20T11:17:27;100872.06;;;13.96;69.67
20630;BME280;17386;43.846;25.950;2023-12-20T11:22:22;100863.31;;;14.12;69.15
20630;BME280;17386;43.846;25.950;2023-12-20T11:24:48;100854.81;;;14.04;69.87
20630;BME280;17386;43.846;25.950;2023-12-20T11:27:14;100861.31;;;13.60;72.35
20630;BME280;17386;43.846;25.950;2023-12-20T11:29:41;100858.09;;;13.33;73.76
20630;BME280;17386;43.846;25.950;2023-12-20T11:34:55;100855.84;;;12.83;76.74
20630;BME280;17386;43.846;25.950;2023-12-20T11:37:21;100853.09;;;12.65;78.48
20630;BME280;17386;43.846;25.950;2023-12-20T11:39:55;100855.44;;;12.72;79.22
20630;BME280;17386;43.846;25.950;2023-12-20T11:42:21;100852.59;;;12.75;79.16
20630;BME280;17386;43.846;25.950;2023-12-20T11:44:46;100829.47;;;12.76;79.05
20630;BME280;17386;43.846;25.950;2023-12-20T11:47:13;100824.38;;;12.71;79.53
20630;BME280;17386;43.846;25.950;2023-12-20T11:49:39;100796.25;;;12.44;80.16
20630;BME280;17386;43.846;25.950;2023-12-20T11:52:05;100817.03;;;12.56;80.59
20630;BME280;17386;43.846;25.950;2023-12-20T11:54:30;100810.22;;;12.49;80.68
20630;BME280;17386;43.846;25.950;2023-12-20T11:56:56;100804.69;;;12.53;80.65
20630;BME280;17386;43.846;25.950;2023-12-20T11:59:21;100802.78;;;12.57;80.56
20630;BME280;17386;43.846;25.950;2023-12-20T12:01:50;100794.50;;;12.43;80.83
20630;BME280;17386;43.846;25.950;2023-12-20T12:04:16;100788.16;;;12.25;81.81
20630;BME280;17386;43.846;25.950;2023-12-20T12:06:43;100779.16;;;12.27;81.13
20630;BME280;17386;43.846;25.950;2023-12-20T12:09:09;100779.38;;;12.23;80.71
20630;BME280;17386;43.846;25.950;2023-12-20T12:11:35;100769.94;;;12.14;80.87
20630;BME280;17386;43.846;25.950;2023-12-20T12:14:01;100769.53;;;12.03;81.40
20630;BME280;17386;43.846;25.950;2023-12-20T12:16:26;100763.34;;;12.02;81.44
20630;BME280;17386;43.846;25.950;2023-12-20T12:18:56;100762.03;;;11.91;82.02
20630;BME280;17386;43.846;25.950;2023-12-20T12:21:22;100747.00;;;11.90;82.55
20630;BME280;17386;43.846;25.950;2023-12-20T12:23:48;100744.44;;;11.87;82.93
20630;BME280;17386;43.846;25.950;2023-12-20T12:26:13;100748.03;;;11.86;82.93
20630;BME280;17386;43.846;25.950;2023-12-20T12:28:42;100742.63;;;11.89;82.71
20630;BME280;17386;43.846;25.950;2023-12-20T12:31:08;100748.25;;;11.81;82.49
20630;BME280;17386;43.846;25.950;2023-12-20T12:33:34;100751.84;;;11.78;82.60
20630;BME280;17386;43.846;25.950;2023-12-20T12:36:00;100758.19;;;11.76;81.70
20630;BME280;17386;43.846;25.950;2023-12-20T12:38:26;100759.75;;;11.82;81.60
20630;BME280;17386;43.846;25.950;2023-12-20T12:40:54;100711.31;;;11.50;82.17
20630;BME280;17386;43.846;25.950;2023-12-20T12:43:19;100739.25;;;11.62;82.61
20630;BME280;17386;43.846;25.950;2023-12-20T12:45:45;100752.47;;;11.63;82.69